Terminal Aerodrome Forecast
Issued by NWS Portland, OR

Home | Current Version | Previous Version | Text Only | Print | Product List | Glossary On
Versions: 1 2 3 4 5 6 7 8 9 10 11 12 13 14 15 16 17 18 19 20 21 22 23 24 25 26 27 28 29 30 31 32
000
FTUS46 KPQR 162203 AAC
TAFTTD
TAF AMD
KTTD 162203Z 1622/1718 VRB03KT P6SM VCSH OVC015
     FM170000 07004KT P6SM FEW025 SCT040 OVC050
     FM170500 13005KT P6SM -RA SCT025 OVC040
     FM171600 14009KT P6SM -RA SCT015 OVC025=

USA.gov is the U.S. government's official web portal to all federal, state and local government web resources and services.